• 1385014 10153382300060425 128216538 n
  • 3
  • 6
  • 7
  • 1
  • 10
  • 未命名
  • 121
  • 55
  • 2
  • cargo

Click here and log in to see your monthly flight duties. 請按此登入個人班表區

Welcome aboard

Current Weather

[source: ADDS]
METAR
RCTP 211230Z 24005KT 9999 -SHRA SCT015 SCT070 BKN140 26/23 Q1000 NOSIG RMK R23 A2954 =
TAF
TAF RCTP 211103Z 2112/2218 08022KT 7000 FEW010 BKN032 TEMPO 2112/2118 01028G40KT 3200 SHRA SCT008 BKN012 BKN020 TEMPO 2118/2122 34030G45KT 4000 SHRA FEW010 BKN015 BKN030 BECMG 2122/2124 30020KT TEMPO 2200/2206 3500 SHRA SCT010 BKN016 BKN030 BECMG 2208/2210 25020KT =